sensor_id;sensor_type;location;lat;lon;timestamp;P1;durP1;ratioP1;P2;durP2;ratioP2
46835;SDS011;32573;51.290;6.926;2022-09-09T00:01:20;1.60;;;0.70;;
46835;SDS011;32573;51.290;6.926;2022-09-09T00:03:59;1.13;;;0.60;;
46835;SDS011;32573;51.290;6.926;2022-09-09T00:06:31;1.80;;;0.70;;
46835;SDS011;32573;51.290;6.926;2022-09-09T00:09:04;1.70;;;0.80;;
46835;SDS011;32573;51.290;6.926;2022-09-09T00:11:40;2.20;;;0.70;;
46835;SDS011;32573;51.290;6.926;2022-09-09T00:14:13;1.05;;;0.60;;
46835;SDS011;32573;51.290;6.926;2022-09-09T00:16:51;1.52;;;0.70;;
46835;SDS011;32573;51.290;6.926;2022-09-09T00:19:24;1.55;;;0.70;;
46835;SDS011;32573;51.290;6.926;2022-09-09T00:22:02;1.95;;;0.70;;
46835;SDS011;32573;51.290;6.926;2022-09-09T00:24:43;2.85;;;0.77;;
46835;SDS011;32573;51.290;6.926;2022-09-09T00:27:16;2.38;;;0.77;;
46835;SDS011;32573;51.290;6.926;2022-09-09T00:29:51;0.73;;;0.60;;
46835;SDS011;32573;51.290;6.926;2022-09-09T00:32:24;2.08;;;0.73;;
46835;SDS011;32573;51.290;6.926;2022-09-09T00:35:00;1.13;;;0.60;;
46835;SDS011;32573;51.290;6.926;2022-09-09T00:37:32;2.25;;;0.90;;
46835;SDS011;32573;51.290;6.926;2022-09-09T00:40:04;1.90;;;0.70;;
46835;SDS011;32573;51.290;6.926;2022-09-09T00:42:46;2.35;;;0.80;;
46835;SDS011;32573;51.290;6.926;2022-09-09T00:47:59;2.08;;;0.82;;
46835;SDS011;32573;51.290;6.926;2022-09-09T00:50:35;1.73;;;0.80;;
46835;SDS011;32573;51.290;6.926;2022-09-09T00:53:19;0.93;;;0.63;;
46835;SDS011;32573;51.290;6.926;2022-09-09T00:55:59;1.75;;;0.80;;
46835;SDS011;32573;51.290;6.926;2022-09-09T00:58:36;2.28;;;0.90;;
46835;SDS011;32573;51.290;6.926;2022-09-09T01:01:05;2.13;;;0.95;;
46835;SDS011;32573;51.290;6.926;2022-09-09T01:03:39;2.10;;;0.90;;
46835;SDS011;32573;51.290;6.926;2022-09-09T01:06:16;1.85;;;0.70;;
46835;SDS011;32573;51.290;6.926;2022-09-09T01:09:00;1.73;;;0.88;;
46835;SDS011;32573;51.290;6.926;2022-09-09T01:11:37;2.42;;;1.13;;
46835;SDS011;32573;51.290;6.926;2022-09-09T01:14:20;1.35;;;0.80;;
46835;SDS011;32573;51.290;6.926;2022-09-09T01:16:58;2.70;;;1.00;;
46835;SDS011;32573;51.290;6.926;2022-09-09T01:19:38;1.42;;;0.90;;
46835;SDS011;32573;51.290;6.926;2022-09-09T01:22:20;1.70;;;0.93;;
46835;SDS011;32573;51.290;6.926;2022-09-09T01:25:06;3.13;;;1.00;;
46835;SDS011;32573;51.290;6.926;2022-09-09T01:28:00;2.35;;;0.93;;
46835;SDS011;32573;51.290;6.926;2022-09-09T01:30:38;2.25;;;0.90;;
46835;SDS011;32573;51.290;6.926;2022-09-09T01:33:12;1.90;;;0.90;;
46835;SDS011;32573;51.290;6.926;2022-09-09T01:35:45;2.33;;;0.90;;
46835;SDS011;32573;51.290;6.926;2022-09-09T01:38:20;1.63;;;0.80;;
46835;SDS011;32573;51.290;6.926;2022-09-09T01:40:50;2.78;;;0.90;;
46835;SDS011;32573;51.290;6.926;2022-09-09T01:43:25;2.40;;;1.10;;
46835;SDS011;32573;51.290;6.926;2022-09-09T01:45:56;2.35;;;1.15;;
46835;SDS011;32573;51.290;6.926;2022-09-09T01:48:32;2.65;;;0.88;;
46835;SDS011;32573;51.290;6.926;2022-09-09T01:51:08;2.05;;;0.90;;
46835;SDS011;32573;51.290;6.926;2022-09-09T01:53:37;2.63;;;0.98;;
46835;SDS011;32573;51.290;6.926;2022-09-09T01:56:10;2.28;;;0.90;;
46835;SDS011;32573;51.290;6.926;2022-09-09T01:58:51;2.40;;;1.00;;
46835;SDS011;32573;51.290;6.926;2022-09-09T02:01:39;2.90;;;1.10;;
46835;SDS011;32573;51.290;6.926;2022-09-09T02:04:24;2.47;;;1.00;;
46835;SDS011;32573;51.290;6.926;2022-09-09T02:07:08;1.60;;;0.85;;
46835;SDS011;32573;51.290;6.926;2022-09-09T02:09:49;2.80;;;1.10;;
46835;SDS011;32573;51.290;6.926;2022-09-09T02:12:27;2.70;;;1.10;;
46835;SDS011;32573;51.290;6.926;2022-09-09T02:15:02;2.60;;;0.88;;
46835;SDS011;32573;51.290;6.926;2022-09-09T02:20:15;2.65;;;1.00;;
46835;SDS011;32573;51.290;6.926;2022-09-09T02:22:55;2.78;;;0.90;;
46835;SDS011;32573;51.290;6.926;2022-09-09T02:25:26;2.60;;;1.00;;
46835;SDS011;32573;51.290;6.926;2022-09-09T02:28:10;3.13;;;1.00;;
46835;SDS011;32573;51.290;6.926;2022-09-09T02:30:43;2.90;;;1.10;;
46835;SDS011;32573;51.290;6.926;2022-09-09T02:33:15;3.50;;;1.25;;
46835;SDS011;32573;51.290;6.926;2022-09-09T02:35:47;3.35;;;1.20;;
46835;SDS011;32573;51.290;6.926;2022-09-09T02:38:20;2.92;;;1.17;;
46835;SDS011;32573;51.290;6.926;2022-09-09T02:41:00;3.65;;;1.50;;
46835;SDS011;32573;51.290;6.926;2022-09-09T02:43:30;2.53;;;1.13;;
46835;SDS011;32573;51.290;6.926;2022-09-09T02:46:02;3.88;;;1.33;;
46835;SDS011;32573;51.290;6.926;2022-09-09T02:48:38;3.13;;;1.15;;
46835;SDS011;32573;51.290;6.926;2022-09-09T02:51:14;3.90;;;1.30;;
46835;SDS011;32573;51.290;6.926;2022-09-09T02:53:56;3.50;;;1.25;;
46835;SDS011;32573;51.290;6.926;2022-09-09T02:56:31;3.72;;;1.13;;
46835;SDS011;32573;51.290;6.926;2022-09-09T02:59:08;2.75;;;1.20;;
46835;SDS011;32573;51.290;6.926;2022-09-09T03:01:39;2.20;;;1.00;;
46835;SDS011;32573;51.290;6.926;2022-09-09T03:04:09;2.20;;;1.00;;
46835;SDS011;32573;51.290;6.926;2022-09-09T03:06:38;4.45;;;1.30;;
46835;SDS011;32573;51.290;6.926;2022-09-09T03:09:16;2.30;;;1.00;;
46835;SDS011;32573;51.290;6.926;2022-09-09T03:11:44;3.10;;;1.20;;
46835;SDS011;32573;51.290;6.926;2022-09-09T03:14:15;4.38;;;1.30;;
46835;SDS011;32573;51.290;6.926;2022-09-09T03:16:49;3.50;;;1.20;;
46835;SDS011;32573;51.290;6.926;2022-09-09T03:19:17;2.65;;;1.02;;
46835;SDS011;32573;51.290;6.926;2022-09-09T03:21:46;2.78;;;1.20;;
46835;SDS011;32573;51.290;6.926;2022-09-09T03:24:17;4.40;;;1.10;;
46835;SDS011;32573;51.290;6.926;2022-09-09T03:26:45;2.67;;;1.13;;
46835;SDS011;32573;51.290;6.926;2022-09-09T03:29:16;3.30;;;1.20;;
46835;SDS011;32573;51.290;6.926;2022-09-09T03:31:45;3.50;;;1.23;;
46835;SDS011;32573;51.290;6.926;2022-09-09T03:34:15;3.15;;;1.15;;
46835;SDS011;32573;51.290;6.926;2022-09-09T03:36:43;2.45;;;1.08;;
46835;SDS011;32573;51.290;6.926;2022-09-09T03:39:13;3.28;;;1.40;;
46835;SDS011;32573;51.290;6.926;2022-09-09T03:41:42;2.80;;;1.10;;
46835;SDS011;32573;51.290;6.926;2022-09-09T03:44:14;3.85;;;1.23;;
46835;SDS011;32573;51.290;6.926;2022-09-09T03:46:43;3.70;;;1.15;;
46835;SDS011;32573;51.290;6.926;2022-09-09T03:49:11;2.83;;;1.10;;
46835;SDS011;32573;51.290;6.926;2022-09-09T03:51:41;2.40;;;1.00;;
46835;SDS011;32573;51.290;6.926;2022-09-09T03:54:12;2.53;;;1.10;;
46835;SDS011;32573;51.290;6.926;2022-09-09T03:56:40;2.75;;;1.10;;
46835;SDS011;32573;51.290;6.926;2022-09-09T03:59:12;2.45;;;1.00;;
46835;SDS011;32573;51.290;6.926;2022-09-09T04:01:41;3.78;;;1.20;;
46835;SDS011;32573;51.290;6.926;2022-09-09T04:04:12;2.80;;;1.20;;
46835;SDS011;32573;51.290;6.926;2022-09-09T04:06:41;4.40;;;1.20;;
46835;SDS011;32573;51.290;6.926;2022-09-09T04:09:10;4.00;;;1.20;;
46835;SDS011;32573;51.290;6.926;2022-09-09T04:11:38;2.80;;;1.02;;
46835;SDS011;32573;51.290;6.926;2022-09-09T04:14:07;2.25;;;1.00;;
46835;SDS011;32573;51.290;6.926;2022-09-09T04:16:36;3.88;;;1.38;;
46835;SDS011;32573;51.290;6.926;2022-09-09T04:19:04;3.05;;;1.10;;
46835;SDS011;32573;51.290;6.926;2022-09-09T04:21:35;2.72;;;1.13;;
46835;SDS011;32573;51.290;6.926;2022-09-09T04:24:05;3.42;;;1.30;;
46835;SDS011;32573;51.290;6.926;2022-09-09T04:26:33;3.95;;;1.20;;
46835;SDS011;32573;51.290;6.926;2022-09-09T04:29:03;2.35;;;1.00;;
46835;SDS011;32573;51.290;6.926;2022-09-09T04:31:34;2.85;;;1.17;;
46835;SDS011;32573;51.290;6.926;2022-09-09T04:34:03;3.95;;;1.25;;
46835;SDS011;32573;51.290;6.926;2022-09-09T04:36:32;3.10;;;1.30;;
46835;SDS011;32573;51.290;6.926;2022-09-09T04:39:06;3.58;;;1.30;;
46835;SDS011;32573;51.290;6.926;2022-09-09T04:41:34;3.30;;;1.30;;
46835;SDS011;32573;51.290;6.926;2022-09-09T04:44:04;4.07;;;1.40;;
46835;SDS011;32573;51.290;6.926;2022-09-09T04:46:33;4.00;;;1.27;;
46835;SDS011;32573;51.290;6.926;2022-09-09T04:49:02;3.35;;;1.30;;
46835;SDS011;32573;51.290;6.926;2022-09-09T04:51:32;2.97;;;1.20;;
46835;SDS011;32573;51.290;6.926;2022-09-09T04:54:00;4.45;;;1.40;;
46835;SDS011;32573;51.290;6.926;2022-09-09T04:56:31;3.47;;;1.40;;
46835;SDS011;32573;51.290;6.926;2022-09-09T04:59:00;3.20;;;1.25;;
46835;SDS011;32573;51.290;6.926;2022-09-09T05:01:42;4.00;;;1.35;;
46835;SDS011;32573;51.290;6.926;2022-09-09T05:04:11;4.22;;;1.30;;
46835;SDS011;32573;51.290;6.926;2022-09-09T05:06:39;4.43;;;1.40;;
46835;SDS011;32573;51.290;6.926;2022-09-09T05:09:10;4.13;;;1.27;;
46835;SDS011;32573;51.290;6.926;2022-09-09T05:11:39;4.53;;;1.50;;
46835;SDS011;32573;51.290;6.926;2022-09-09T05:14:21;4.60;;;1.63;;
46835;SDS011;32573;51.290;6.926;2022-09-09T05:16:50;3.97;;;1.42;;
46835;SDS011;32573;51.290;6.926;2022-09-09T05:19:18;2.60;;;1.10;;
46835;SDS011;32573;51.290;6.926;2022-09-09T05:21:48;3.75;;;1.40;;
46835;SDS011;32573;51.290;6.926;2022-09-09T05:24:21;3.40;;;1.40;;
46835;SDS011;32573;51.290;6.926;2022-09-09T05:26:54;2.88;;;1.23;;
46835;SDS011;32573;51.290;6.926;2022-09-09T05:29:25;5.00;;;1.52;;
46835;SDS011;32573;51.290;6.926;2022-09-09T05:31:55;4.38;;;1.25;;
46835;SDS011;32573;51.290;6.926;2022-09-09T05:34:24;3.20;;;1.30;;
46835;SDS011;32573;51.290;6.926;2022-09-09T05:36:52;3.33;;;1.30;;
46835;SDS011;32573;51.290;6.926;2022-09-09T05:39:22;3.50;;;1.40;;
46835;SDS011;32573;51.290;6.926;2022-09-09T05:41:51;4.07;;;1.20;;
46835;SDS011;32573;51.290;6.926;2022-09-09T05:44:21;4.13;;;1.30;;
46835;SDS011;32573;51.290;6.926;2022-09-09T05:46:50;2.53;;;1.25;;
46835;SDS011;32573;51.290;6.926;2022-09-09T05:49:18;4.05;;;1.40;;
46835;SDS011;32573;51.290;6.926;2022-09-09T05:51:47;3.53;;;1.30;;
46835;SDS011;32573;51.290;6.926;2022-09-09T05:54:18;3.40;;;1.40;;
46835;SDS011;32573;51.290;6.926;2022-09-09T05:56:50;4.55;;;1.50;;
46835;SDS011;32573;51.290;6.926;2022-09-09T05:59:20;3.95;;;1.20;;
46835;SDS011;32573;51.290;6.926;2022-09-09T06:01:52;3.75;;;1.35;;
46835;SDS011;32573;51.290;6.926;2022-09-09T06:04:29;3.55;;;1.35;;
46835;SDS011;32573;51.290;6.926;2022-09-09T06:07:00;2.67;;;1.20;;
46835;SDS011;32573;51.290;6.926;2022-09-09T06:09:29;3.60;;;1.50;;
46835;SDS011;32573;51.290;6.926;2022-09-09T06:11:58;3.92;;;1.30;;
46835;SDS011;32573;51.290;6.926;2022-09-09T06:14:27;3.95;;;1.58;;
46835;SDS011;32573;51.290;6.926;2022-09-09T06:16:58;3.90;;;1.60;;
46835;SDS011;32573;51.290;6.926;2022-09-09T06:19:29;3.95;;;1.42;;
46835;SDS011;32573;51.290;6.926;2022-09-09T06:21:58;4.10;;;1.42;;
46835;SDS011;32573;51.290;6.926;2022-09-09T06:24:29;6.30;;;1.50;;
46835;SDS011;32573;51.290;6.926;2022-09-09T06:26:59;3.25;;;1.40;;
46835;SDS011;32573;51.290;6.926;2022-09-09T06:29:33;5.00;;;1.55;;
46835;SDS011;32573;51.290;6.926;2022-09-09T06:32:02;4.25;;;1.50;;
46835;SDS011;32573;51.290;6.926;2022-09-09T06:34:31;3.90;;;1.50;;
46835;SDS011;32573;51.290;6.926;2022-09-09T06:36:59;4.15;;;1.50;;
46835;SDS011;32573;51.290;6.926;2022-09-09T06:39:35;4.30;;;1.50;;
46835;SDS011;32573;51.290;6.926;2022-09-09T06:42:03;6.13;;;1.63;;
46835;SDS011;32573;51.290;6.926;2022-09-09T06:44:51;4.90;;;1.50;;
46835;SDS011;32573;51.290;6.926;2022-09-09T06:47:37;5.00;;;1.40;;
46835;SDS011;32573;51.290;6.926;2022-09-09T06:50:06;4.47;;;1.30;;
46835;SDS011;32573;51.290;6.926;2022-09-09T06:52:35;3.45;;;1.40;;
46835;SDS011;32573;51.290;6.926;2022-09-09T06:55:05;4.78;;;1.48;;
46835;SDS011;32573;51.290;6.926;2022-09-09T06:57:35;2.67;;;1.20;;
46835;SDS011;32573;51.290;6.926;2022-09-09T07:00:14;2.83;;;1.10;;
46835;SDS011;32573;51.290;6.926;2022-09-09T07:02:43;2.92;;;1.30;;
46835;SDS011;32573;51.290;6.926;2022-09-09T07:05:13;3.70;;;1.25;;
46835;SDS011;32573;51.290;6.926;2022-09-09T07:07:43;3.13;;;1.20;;
46835;SDS011;32573;51.290;6.926;2022-09-09T07:10:13;3.88;;;1.30;;
46835;SDS011;32573;51.290;6.926;2022-09-09T07:12:43;4.60;;;1.50;;
46835;SDS011;32573;51.290;6.926;2022-09-09T07:15:14;3.83;;;1.30;;
46835;SDS011;32573;51.290;6.926;2022-09-09T07:17:44;3.20;;;1.15;;
46835;SDS011;32573;51.290;6.926;2022-09-09T07:20:14;4.15;;;1.40;;
46835;SDS011;32573;51.290;6.926;2022-09-09T07:22:43;5.00;;;1.27;;
46835;SDS011;32573;51.290;6.926;2022-09-09T07:25:12;3.08;;;1.15;;
46835;SDS011;32573;51.290;6.926;2022-09-09T07:27:41;3.30;;;1.10;;
46835;SDS011;32573;51.290;6.926;2022-09-09T07:30:10;3.00;;;1.20;;
46835;SDS011;32573;51.290;6.926;2022-09-09T07:32:48;3.08;;;1.17;;
46835;SDS011;32573;51.290;6.926;2022-09-09T07:35:19;4.10;;;1.30;;
46835;SDS011;32573;51.290;6.926;2022-09-09T07:37:47;2.83;;;1.20;;
46835;SDS011;32573;51.290;6.926;2022-09-09T07:40:18;4.00;;;1.40;;
46835;SDS011;32573;51.290;6.926;2022-09-09T07:42:48;3.63;;;1.20;;
46835;SDS011;32573;51.290;6.926;2022-09-09T07:45:17;2.88;;;1.00;;
46835;SDS011;32573;51.290;6.926;2022-09-09T07:47:47;4.13;;;1.30;;
46835;SDS011;32573;51.290;6.926;2022-09-09T07:50:17;4.43;;;1.23;;
46835;SDS011;32573;51.290;6.926;2022-09-09T07:52:45;3.92;;;1.40;;
46835;SDS011;32573;51.290;6.926;2022-09-09T07:55:15;3.70;;;1.30;;
46835;SDS011;32573;51.290;6.926;2022-09-09T07:57:43;3.50;;;1.13;;
46835;SDS011;32573;51.290;6.926;2022-09-09T08:00:12;3.35;;;1.20;;
46835;SDS011;32573;51.290;6.926;2022-09-09T08:02:49;2.72;;;1.13;;
46835;SDS011;32573;51.290;6.926;2022-09-09T08:05:17;3.88;;;1.38;;
46835;SDS011;32573;51.290;6.926;2022-09-09T08:07:48;4.22;;;1.38;;
46835;SDS011;32573;51.290;6.926;2022-09-09T08:10:16;3.95;;;1.30;;
46835;SDS011;32573;51.290;6.926;2022-09-09T08:12:46;3.72;;;1.25;;
46835;SDS011;32573;51.290;6.926;2022-09-09T08:15:36;4.47;;;1.10;;
46835;SDS011;32573;51.290;6.926;2022-09-09T08:18:05;3.92;;;1.33;;
46835;SDS011;32573;51.290;6.926;2022-09-09T08:20:35;6.63;;;1.23;;
46835;SDS011;32573;51.290;6.926;2022-09-09T08:23:04;5.50;;;1.30;;
46835;SDS011;32573;51.290;6.926;2022-09-09T08:25:34;3.95;;;1.00;;
46835;SDS011;32573;51.290;6.926;2022-09-09T08:28:02;5.90;;;1.20;;
46835;SDS011;32573;51.290;6.926;2022-09-09T08:30:31;4.07;;;1.10;;
46835;SDS011;32573;51.290;6.926;2022-09-09T08:32:59;5.10;;;1.20;;
46835;SDS011;32573;51.290;6.926;2022-09-09T08:35:29;5.10;;;1.50;;
46835;SDS011;32573;51.290;6.926;2022-09-09T08:37:59;3.65;;;1.08;;
46835;SDS011;32573;51.290;6.926;2022-09-09T08:40:32;4.00;;;1.20;;
46835;SDS011;32573;51.290;6.926;2022-09-09T08:43:10;3.90;;;1.30;;
46835;SDS011;32573;51.290;6.926;2022-09-09T08:45:42;4.22;;;1.20;;
46835;SDS011;32573;51.290;6.926;2022-09-09T08:48:23;4.25;;;1.13;;
46835;SDS011;32573;51.290;6.926;2022-09-09T08:51:09;3.33;;;1.20;;
46835;SDS011;32573;51.290;6.926;2022-09-09T08:57:26;5.23;;;1.40;;
46835;SDS011;32573;51.290;6.926;2022-09-09T08:59:58;4.40;;;1.40;;
46835;SDS011;32573;51.290;6.926;2022-09-09T09:02:28;4.35;;;1.10;;
46835;SDS011;32573;51.290;6.926;2022-09-09T09:05:08;3.58;;;1.27;;
46835;SDS011;32573;51.290;6.926;2022-09-09T09:07:52;3.80;;;1.02;;
46835;SDS011;32573;51.290;6.926;2022-09-09T09:10:33;3.53;;;1.33;;
46835;SDS011;32573;51.290;6.926;2022-09-09T09:13:13;5.78;;;1.10;;
46835;SDS011;32573;51.290;6.926;2022-09-09T09:15:47;3.50;;;1.20;;
46835;SDS011;32573;51.290;6.926;2022-09-09T09:18:20;5.28;;;1.20;;
46835;SDS011;32573;51.290;6.926;2022-09-09T09:20:50;2.72;;;1.00;;
46835;SDS011;32573;51.290;6.926;2022-09-09T09:23:29;3.17;;;1.10;;
46835;SDS011;32573;51.290;6.926;2022-09-09T09:26:08;4.20;;;1.10;;
46835;SDS011;32573;51.290;6.926;2022-09-09T09:28:39;4.50;;;1.30;;
46835;SDS011;32573;51.290;6.926;2022-09-09T09:31:28;3.45;;;1.10;;
46835;SDS011;32573;51.290;6.926;2022-09-09T09:33:56;5.75;;;1.20;;
46835;SDS011;32573;51.290;6.926;2022-09-09T09:36:33;2.13;;;0.80;;
46835;SDS011;32573;51.290;6.926;2022-09-09T09:39:07;2.58;;;1.13;;
46835;SDS011;32573;51.290;6.926;2022-09-09T09:41:59;3.60;;;1.25;;
46835;SDS011;32573;51.290;6.926;2022-09-09T09:44:37;2.38;;;0.95;;
46835;SDS011;32573;51.290;6.926;2022-09-09T09:47:12;3.72;;;1.00;;
46835;SDS011;32573;51.290;6.926;2022-09-09T09:49:52;3.92;;;1.23;;
46835;SDS011;32573;51.290;6.926;2022-09-09T09:52:23;5.10;;;1.60;;
46835;SDS011;32573;51.290;6.926;2022-09-09T09:54:54;4.80;;;1.23;;
46835;SDS011;32573;51.290;6.926;2022-09-09T09:57:31;4.07;;;1.00;;
46835;SDS011;32573;51.290;6.926;2022-09-09T10:00:12;4.22;;;1.20;;
46835;SDS011;32573;51.290;6.926;2022-09-09T10:02:43;3.25;;;1.00;;
46835;SDS011;32573;51.290;6.926;2022-09-09T10:05:19;4.55;;;1.30;;
46835;SDS011;32573;51.290;6.926;2022-09-09T10:08:01;4.75;;;1.30;;
46835;SDS011;32573;51.290;6.926;2022-09-09T10:10:40;2.92;;;1.27;;
46835;SDS011;32573;51.290;6.926;2022-09-09T10:13:19;4.22;;;1.42;;
46835;SDS011;32573;51.290;6.926;2022-09-09T10:15:56;5.50;;;1.00;;
46835;SDS011;32573;51.290;6.926;2022-09-09T10:18:36;5.25;;;1.10;;
46835;SDS011;32573;51.290;6.926;2022-09-09T10:21:16;3.65;;;1.10;;
46835;SDS011;32573;51.290;6.926;2022-09-09T10:24:02;3.28;;;1.00;;
46835;SDS011;32573;51.290;6.926;2022-09-09T10:26:46;3.20;;;1.13;;
46835;SDS011;32573;51.290;6.926;2022-09-09T10:29:26;3.05;;;0.90;;
46835;SDS011;32573;51.290;6.926;2022-09-09T10:32:19;3.80;;;1.10;;
46835;SDS011;32573;51.290;6.926;2022-09-09T10:35:02;3.65;;;1.27;;
46835;SDS011;32573;51.290;6.926;2022-09-09T10:37:42;4.15;;;1.10;;
46835;SDS011;32573;51.290;6.926;2022-09-09T10:40:31;3.75;;;1.10;;
46835;SDS011;32573;51.290;6.926;2022-09-09T10:43:04;3.30;;;1.05;;
46835;SDS011;32573;51.290;6.926;2022-09-09T10:45:47;1.63;;;0.73;;
46835;SDS011;32573;51.290;6.926;2022-09-09T10:48:28;4.97;;;1.00;;
46835;SDS011;32573;51.290;6.926;2022-09-09T10:51:06;3.30;;;0.90;;
46835;SDS011;32573;51.290;6.926;2022-09-09T10:53:46;3.28;;;1.00;;
46835;SDS011;32573;51.290;6.926;2022-09-09T10:56:26;4.70;;;0.98;;
46835;SDS011;32573;51.290;6.926;2022-09-09T10:58:58;3.08;;;0.90;;
46835;SDS011;32573;51.290;6.926;2022-09-09T11:01:30;1.42;;;0.77;;
46835;SDS011;32573;51.290;6.926;2022-09-09T11:04:05;3.13;;;0.90;;
46835;SDS011;32573;51.290;6.926;2022-09-09T11:06:44;3.90;;;1.00;;
46835;SDS011;32573;51.290;6.926;2022-09-09T11:09:18;5.28;;;1.00;;
46835;SDS011;32573;51.290;6.926;2022-09-09T11:11:51;3.05;;;0.93;;
46835;SDS011;32573;51.290;6.926;2022-09-09T11:14:25;2.50;;;1.02;;
46835;SDS011;32573;51.290;6.926;2022-09-09T11:17:04;3.60;;;1.10;;
46835;SDS011;32573;51.290;6.926;2022-09-09T11:19:39;3.40;;;1.00;;
46835;SDS011;32573;51.290;6.926;2022-09-09T11:22:14;3.08;;;0.90;;
46835;SDS011;32573;51.290;6.926;2022-09-09T11:24:50;2.97;;;1.02;;
46835;SDS011;32573;51.290;6.926;2022-09-09T11:27:24;3.28;;;1.00;;
46835;SDS011;32573;51.290;6.926;2022-09-09T11:36:37;3.80;;;0.98;;
46835;SDS011;32573;51.290;6.926;2022-09-09T11:39:33;2.67;;;0.88;;
46835;SDS011;32573;51.290;6.926;2022-09-09T11:42:15;2.78;;;0.98;;
46835;SDS011;32573;51.290;6.926;2022-09-09T11:44:45;2.38;;;0.90;;
46835;SDS011;32573;51.290;6.926;2022-09-09T11:47:22;2.03;;;0.90;;
46835;SDS011;32573;51.290;6.926;2022-09-09T11:50:06;2.13;;;0.90;;
46835;SDS011;32573;51.290;6.926;2022-09-09T11:52:37;2.92;;;0.90;;
46835;SDS011;32573;51.290;6.926;2022-09-09T11:55:10;2.67;;;1.00;;
46835;SDS011;32573;51.290;6.926;2022-09-09T11:57:39;2.90;;;1.00;;
46835;SDS011;32573;51.290;6.926;2022-09-09T12:03:03;2.90;;;0.95;;
46835;SDS011;32573;51.290;6.926;2022-09-09T12:05:36;2.95;;;1.10;;
46835;SDS011;32573;51.290;6.926;2022-09-09T12:08:08;2.55;;;0.90;;
46835;SDS011;32573;51.290;6.926;2022-09-09T12:10:39;4.07;;;1.10;;
46835;SDS011;32573;51.290;6.926;2022-09-09T12:13:16;2.28;;;1.00;;
46835;SDS011;32573;51.290;6.926;2022-09-09T12:15:49;1.77;;;0.80;;
46835;SDS011;32573;51.290;6.926;2022-09-09T12:18:23;3.92;;;1.05;;
46835;SDS011;32573;51.290;6.926;2022-09-09T12:20:54;4.70;;;0.90;;
46835;SDS011;32573;51.290;6.926;2022-09-09T12:23:34;3.17;;;0.90;;
46835;SDS011;32573;51.290;6.926;2022-09-09T12:26:21;4.70;;;1.08;;
46835;SDS011;32573;51.290;6.926;2022-09-09T12:29:02;3.60;;;0.90;;
46835;SDS011;32573;51.290;6.926;2022-09-09T12:31:39;2.53;;;1.00;;
46835;SDS011;32573;51.290;6.926;2022-09-09T12:34:15;3.47;;;1.20;;
46835;SDS011;32573;51.290;6.926;2022-09-09T12:36:48;3.75;;;1.20;;
46835;SDS011;32573;51.290;6.926;2022-09-09T12:39:26;4.20;;;1.20;;
46835;SDS011;32573;51.290;6.926;2022-09-09T12:42:00;3.00;;;1.00;;
46835;SDS011;32573;51.290;6.926;2022-09-09T12:44:31;2.65;;;0.90;;
46835;SDS011;32573;51.290;6.926;2022-09-09T12:47:00;4.05;;;1.10;;
46835;SDS011;32573;51.290;6.926;2022-09-09T12:49:33;3.47;;;1.02;;
46835;SDS011;32573;51.290;6.926;2022-09-09T12:52:06;2.80;;;1.00;;
46835;SDS011;32573;51.290;6.926;2022-09-09T12:54:43;4.07;;;1.10;;
46835;SDS011;32573;51.290;6.926;2022-09-09T12:57:13;2.85;;;1.08;;
46835;SDS011;32573;51.290;6.926;2022-09-09T12:59:43;2.42;;;0.90;;
46835;SDS011;32573;51.290;6.926;2022-09-09T13:02:19;3.25;;;1.10;;
46835;SDS011;32573;51.290;6.926;2022-09-09T13:04:51;2.53;;;1.00;;
46835;SDS011;32573;51.290;6.926;2022-09-09T13:07:20;1.90;;;0.90;;
46835;SDS011;32573;51.290;6.926;2022-09-09T13:09:49;3.00;;;1.00;;
46835;SDS011;32573;51.290;6.926;2022-09-09T13:12:18;3.22;;;1.10;;
46835;SDS011;32573;51.290;6.926;2022-09-09T13:14:49;2.92;;;1.00;;
46835;SDS011;32573;51.290;6.926;2022-09-09T13:17:21;5.70;;;1.23;;
46835;SDS011;32573;51.290;6.926;2022-09-09T13:19:53;5.47;;;1.38;;
46835;SDS011;32573;51.290;6.926;2022-09-09T13:22:24;2.83;;;1.27;;
46835;SDS011;32573;51.290;6.926;2022-09-09T13:25:03;3.83;;;1.30;;
46835;SDS011;32573;51.290;6.926;2022-09-09T13:27:34;3.38;;;1.40;;
46835;SDS011;32573;51.290;6.926;2022-09-09T13:33:04;4.10;;;1.10;;
46835;SDS011;32573;51.290;6.926;2022-09-09T13:35:36;2.93;;;1.20;;
46835;SDS011;32573;51.290;6.926;2022-09-09T13:38:15;4.40;;;1.40;;
46835;SDS011;32573;51.290;6.926;2022-09-09T13:40:53;2.78;;;0.90;;
46835;SDS011;32573;51.290;6.926;2022-09-09T13:43:24;3.38;;;1.02;;
46835;SDS011;32573;51.290;6.926;2022-09-09T13:45:55;2.25;;;1.00;;
46835;SDS011;32573;51.290;6.926;2022-09-09T13:48:25;3.40;;;1.20;;
46835;SDS011;32573;51.290;6.926;2022-09-09T13:50:56;2.55;;;0.95;;
46835;SDS011;32573;51.290;6.926;2022-09-09T13:53:25;2.60;;;1.00;;
46835;SDS011;32573;51.290;6.926;2022-09-09T13:55:54;3.30;;;1.02;;
46835;SDS011;32573;51.290;6.926;2022-09-09T13:58:23;2.90;;;1.08;;
46835;SDS011;32573;51.290;6.926;2022-09-09T14:00:53;3.25;;;1.10;;
46835;SDS011;32573;51.290;6.926;2022-09-09T14:03:21;2.83;;;1.10;;
46835;SDS011;32573;51.290;6.926;2022-09-09T14:05:49;2.67;;;1.10;;
46835;SDS011;32573;51.290;6.926;2022-09-09T14:08:24;3.22;;;1.00;;
46835;SDS011;32573;51.290;6.926;2022-09-09T14:10:55;2.38;;;0.90;;
46835;SDS011;32573;51.290;6.926;2022-09-09T14:13:25;3.15;;;1.30;;
46835;SDS011;32573;51.290;6.926;2022-09-09T14:15:53;4.05;;;1.10;;
46835;SDS011;32573;51.290;6.926;2022-09-09T14:18:21;3.22;;;1.00;;
46835;SDS011;32573;51.290;6.926;2022-09-09T14:20:52;4.82;;;1.35;;
46835;SDS011;32573;51.290;6.926;2022-09-09T14:23:20;2.47;;;1.00;;
46835;SDS011;32573;51.290;6.926;2022-09-09T14:25:50;3.97;;;1.20;;
46835;SDS011;32573;51.290;6.926;2022-09-09T14:28:19;3.22;;;1.20;;
46835;SDS011;32573;51.290;6.926;2022-09-09T14:31:07;4.53;;;1.20;;
46835;SDS011;32573;51.290;6.926;2022-09-09T14:33:37;3.00;;;1.02;;
46835;SDS011;32573;51.290;6.926;2022-09-09T14:36:05;3.20;;;1.00;;
46835;SDS011;32573;51.290;6.926;2022-09-09T14:38:35;2.58;;;1.00;;
46835;SDS011;32573;51.290;6.926;2022-09-09T14:41:07;4.75;;;1.40;;
46835;SDS011;32573;51.290;6.926;2022-09-09T14:43:38;1.83;;;0.85;;
46835;SDS011;32573;51.290;6.926;2022-09-09T14:46:06;2.15;;;0.88;;
46835;SDS011;32573;51.290;6.926;2022-09-09T14:48:35;3.00;;;1.02;;
46835;SDS011;32573;51.290;6.926;2022-09-09T14:51:06;1.65;;;0.70;;
46835;SDS011;32573;51.290;6.926;2022-09-09T14:53:35;1.35;;;0.70;;
46835;SDS011;32573;51.290;6.926;2022-09-09T14:56:05;0.88;;;0.60;;
46835;SDS011;32573;51.290;6.926;2022-09-09T14:58:37;1.88;;;0.60;;
46835;SDS011;32573;51.290;6.926;2022-09-09T15:01:06;0.70;;;0.60;;
46835;SDS011;32573;51.290;6.926;2022-09-09T15:03:36;1.23;;;0.63;;
46835;SDS011;32573;51.290;6.926;2022-09-09T15:06:06;2.53;;;0.70;;
46835;SDS011;32573;51.290;6.926;2022-09-09T15:08:36;2.95;;;0.70;;
46835;SDS011;32573;51.290;6.926;2022-09-09T15:11:10;1.13;;;0.60;;
46835;SDS011;32573;51.290;6.926;2022-09-09T15:13:40;1.67;;;0.70;;
46835;SDS011;32573;51.290;6.926;2022-09-09T15:16:10;1.35;;;0.65;;
46835;SDS011;32573;51.290;6.926;2022-09-09T15:18:40;1.27;;;0.70;;
46835;SDS011;32573;51.290;6.926;2022-09-09T15:21:09;1.05;;;0.60;;
46835;SDS011;32573;51.290;6.926;2022-09-09T15:23:38;1.50;;;0.80;;
46835;SDS011;32573;51.290;6.926;2022-09-09T15:26:07;4.05;;;1.75;;
46835;SDS011;32573;51.290;6.926;2022-09-09T15:28:37;2.83;;;1.23;;
46835;SDS011;32573;51.290;6.926;2022-09-09T15:31:07;2.72;;;1.00;;
46835;SDS011;32573;51.290;6.926;2022-09-09T15:33:37;2.40;;;0.90;;
46835;SDS011;32573;51.290;6.926;2022-09-09T15:36:12;1.02;;;0.70;;
46835;SDS011;32573;51.290;6.926;2022-09-09T15:38:42;1.30;;;0.73;;
46835;SDS011;32573;51.290;6.926;2022-09-09T15:41:12;1.23;;;0.68;;
46835;SDS011;32573;51.290;6.926;2022-09-09T15:43:43;1.20;;;0.70;;
46835;SDS011;32573;51.290;6.926;2022-09-09T15:46:23;1.35;;;0.70;;